Kelvington, Canada
Current Conditions -  °F | °C
As of 6:42 AM on Sunday 21 Dec 2014 (Local Time) from CYQV Reporting Station
Haze Haze  
Wind Chill: 20°   Ceiling: 200
Heat Index: 28°   Visibility: 1mi
Dew Point: 28°   Wind: 8mph
Humidity: 100%   Direction: 170°S
Pressure: 29.53"   Gusts: NA
Location:  52.17°N, 103.52°W
Report Text: CYQV 211242Z AUTO 17007KT 1SM BR OVC002 M02/M02 A2953 RMK SLP026
Loading
Personal Weather Stations






























Interactive Weather Map New forecast layout! Learn more

10-Day Weather Forecast

Advertisements
Track Severe Weather on mobile